»·PEaware :: USC525 MMLT-KLAS

USC525 :: MMLT-KLAS

FLIGHT INFORMATION

Flight Status: Arrived
Operator: Unknown
More flights by this operator :: More flights under this callsign
Pilot: Andy P. (22680)
Aircraft: GATES LEARJET LEARJET 35/36
(LJ35)
More flights by this aircraft type
Origin: MMLT Loreto Intl
Mexico
Destination: KLAS McCarran Intl
United States
More flights between these airports :: More routes between these airports
Route: +LTO UT25 MXL HEEDS CARGO BLH V135 EED IGM KADDY3
File this flight plan on PilotEdge
Remarks:
Altitude:
(Current/Filed)
40,000ft
Speed:
(Current/Filed)
465kts
Departed: 21-Feb-19 02:48 PM
Arrived: 21-Feb-19 04:36 PM
Distance/Time
Traveled:
636nm/1:47
Distance/Time
To Go:
Arrived

Flight Plot

Page will automatically refresh every two minutes.

Flight plan parsing failed; only flown route is shown


Map Options




Map Legend


Flown Route
Filed Route
Departure Airport
Arrival Airport
Navaid (VOR, NDB)
Fix

Horizontal Profiles

Position Reports

Time Latitude Longitude Heading Altitude Ground
Speed
21-Feb-19 14:26 25.990914 -111.352028 0 36ft 0kts
21-Feb-19 14:27 25.990914 -111.352028 0 36ft 0kts
21-Feb-19 14:28 25.990914 -111.352028 0 36ft 0kts
21-Feb-19 14:29 25.990914 -111.352028 0 36ft 0kts
21-Feb-19 14:30 25.990914 -111.352028 0 36ft 0kts
21-Feb-19 14:31 25.990914 -111.352028 0 36ft 0kts
21-Feb-19 14:32 25.990914 -111.352028 0 36ft 0kts
21-Feb-19 14:33 25.990914 -111.352028 0 36ft 0kts
21-Feb-19 14:34 30.499342 -86.511286 192 92ft 0kts
21-Feb-19 14:39 25.990667 -111.351495 353 36ft 0kts
21-Feb-19 14:40 25.990667 -111.351495 353 36ft 0kts
21-Feb-19 14:41 25.990668 -111.351495 353 36ft 0kts
21-Feb-19 14:42 25.990669 -111.351495 353 36ft 0kts
21-Feb-19 14:43 25.990670 -111.351495 353 36ft 0kts
21-Feb-19 14:44 25.991420 -111.350823 87 36ft 16kts
21-Feb-19 14:45 25.986800 -111.347933 173 36ft 37kts
21-Feb-19 14:46 25.980243 -111.347544 135 36ft 1kts
21-Feb-19 14:47 25.994459 -111.348955 353 108ft 169kts
21-Feb-19 14:48 26.052227 -111.386286 319 3834ft 294kts
21-Feb-19 14:49 26.119675 -111.444262 325 9616ft 326kts
21-Feb-19 14:50 26.201382 -111.498874 325 13748ft 380kts
21-Feb-19 14:51 26.297382 -111.563776 324 18045ft 410kts
21-Feb-19 14:52 26.394533 -111.629697 324 22282ft 413kts
21-Feb-19 14:53 26.494802 -111.697947 324 25055ft 430kts
21-Feb-19 14:55 26.598412 -111.768581 324 27301ft 442kts
21-Feb-19 14:56 26.704434 -111.841002 324 29095ft 452kts
21-Feb-19 14:57 26.811424 -111.914220 323 31118ft 448kts
21-Feb-19 14:58 26.917366 -111.986906 323 32851ft 446kts
21-Feb-19 14:59 27.022610 -112.059275 322 34475ft 441kts
21-Feb-19 15:00 27.127258 -112.131408 322 35792ft 441kts
21-Feb-19 15:01 27.231975 -112.203743 321 36974ft 441kts
21-Feb-19 15:02 27.337529 -112.274030 325 38071ft 444kts
21-Feb-19 15:03 27.449709 -112.334399 327 39027ft 447kts
21-Feb-19 15:04 27.562280 -112.394210 327 39824ft 448kts
21-Feb-19 15:05 27.676062 -112.454697 327 39941ft 455kts
21-Feb-19 15:06 27.791440 -112.516129 327 39942ft 461kts
21-Feb-19 15:07 27.907981 -112.578316 327 39939ft 463kts
21-Feb-19 15:08 28.024501 -112.640635 327 39939ft 462kts
21-Feb-19 15:09 28.140015 -112.702574 327 39937ft 459kts
21-Feb-19 15:10 28.255504 -112.764652 327 39937ft 458kts
21-Feb-19 15:11 28.370240 -112.826473 327 39936ft 456kts
21-Feb-19 15:12 28.484661 -112.888276 327 39934ft 455kts
21-Feb-19 15:13 28.599114 -112.950248 327 39919ft 454kts
21-Feb-19 15:14 28.713085 -113.012106 327 39903ft 454kts
21-Feb-19 15:14 28.808081 -113.063781 327 39903ft 454kts
21-Feb-19 15:15 28.922058 -113.125917 326 39902ft 453kts
21-Feb-19 15:17 29.054447 -113.198287 326 39902ft 452kts
21-Feb-19 15:18 29.168018 -113.260535 326 39879ft 452kts
21-Feb-19 15:18 29.262728 -113.312561 326 39878ft 451kts
21-Feb-19 15:19 29.375639 -113.374728 326 39878ft 451kts
21-Feb-19 15:20 29.488756 -113.437162 326 39878ft 450kts
21-Feb-19 15:21 29.601672 -113.499643 326 39873ft 450kts
21-Feb-19 15:22 29.714270 -113.562104 326 39867ft 449kts
21-Feb-19 15:23 29.826753 -113.624652 326 39861ft 449kts
21-Feb-19 15:24 29.939363 -113.687397 325 39855ft 448kts
21-Feb-19 15:25 30.051603 -113.750105 325 39770ft 449kts
21-Feb-19 15:26 30.163801 -113.812933 325 39768ft 448kts
21-Feb-19 15:27 30.276006 -113.875935 325 39768ft 447kts
21-Feb-19 15:28 30.387991 -113.938976 325 39764ft 447kts
21-Feb-19 15:29 30.499925 -114.002149 325 39733ft 448kts
21-Feb-19 15:30 30.611824 -114.065459 325 39733ft 446kts
21-Feb-19 15:31 30.723429 -114.128770 325 39733ft 445kts
21-Feb-19 15:32 30.834422 -114.191902 325 39730ft 445kts
21-Feb-19 15:33 30.945637 -114.255321 325 39726ft 444kts
21-Feb-19 15:34 31.056490 -114.318700 325 39720ft 444kts
21-Feb-19 15:35 31.167260 -114.382209 325 39717ft 444kts
21-Feb-19 15:36 31.278264 -114.446022 325 39698ft 444kts
21-Feb-19 15:37 31.389058 -114.509882 325 39698ft 443kts
21-Feb-19 15:38 31.499800 -114.573882 325 39698ft 443kts
21-Feb-19 15:39 31.610396 -114.637967 325 39698ft 443kts
21-Feb-19 15:40 31.721045 -114.702254 325 39698ft 443kts
21-Feb-19 15:41 31.831572 -114.766645 325 39698ft 443kts
21-Feb-19 15:42 31.942005 -114.831190 325 39699ft 443kts
21-Feb-19 15:43 32.052357 -114.895882 325 39699ft 443kts
21-Feb-19 15:44 32.162668 -114.960722 325 39699ft 443kts
21-Feb-19 15:45 32.272955 -115.025724 325 39699ft 443kts
21-Feb-19 15:46 32.384778 -115.087673 338 39695ft 456kts
21-Feb-19 15:47 32.514962 -115.062177 9 39704ft 489kts
21-Feb-19 15:48 32.645700 -115.020851 6 39704ft 486kts
21-Feb-19 15:49 32.777920 -114.984606 5 39702ft 487kts
21-Feb-19 15:50 32.909826 -114.948795 5 39698ft 488kts
21-Feb-19 15:51 33.042355 -114.911108 10 39697ft 494kts
21-Feb-19 15:52 33.172394 -114.854016 13 39692ft 497kts
21-Feb-19 15:53 33.302314 -114.797385 13 39689ft 497kts
21-Feb-19 15:54 33.432233 -114.741267 13 39688ft 498kts
21-Feb-19 15:55 33.563059 -114.684702 13 39686ft 499kts
21-Feb-19 15:56 33.694214 -114.627837 13 39686ft 501kts
21-Feb-19 15:57 33.825387 -114.570779 13 39686ft 503kts
21-Feb-19 15:58 33.957084 -114.513308 13 39686ft 504kts
21-Feb-19 15:59 34.089109 -114.455504 13 39686ft 505kts
21-Feb-19 16:00 34.221005 -114.397546 13 37840ft 500kts
21-Feb-19 16:01 34.351203 -114.340139 13 36038ft 492kts
21-Feb-19 16:02 34.480210 -114.283111 13 33835ft 491kts
21-Feb-19 16:03 34.607212 -114.226748 13 31905ft 481kts
21-Feb-19 16:04 34.731602 -114.171398 13 29970ft 473kts
21-Feb-19 16:05 34.853662 -114.116873 14 28150ft 461kts
21-Feb-19 16:06 34.973260 -114.063334 16 26334ft 459kts
21-Feb-19 16:07 35.093373 -114.009373 18 24507ft 460kts
21-Feb-19 16:08 35.213463 -113.956830 11 22682ft 456kts
21-Feb-19 16:09 35.333656 -113.975893 329 20927ft 434kts
21-Feb-19 16:10 35.442496 -114.038150 332 19216ft 429kts
21-Feb-19 16:11 35.551262 -114.100162 332 17204ft 431kts
21-Feb-19 16:12 35.636809 -114.185503 299 15278ft 364kts
21-Feb-19 16:13 35.687560 -114.280571 300 13683ft 305kts
21-Feb-19 16:14 35.732016 -114.364101 301 12311ft 286kts
21-Feb-19 16:15 35.790789 -114.425790 336 12033ft 284kts
21-Feb-19 16:16 35.868297 -114.462631 338 12041ft 307kts
21-Feb-19 16:17 35.946513 -114.498804 338 12033ft 292kts
21-Feb-19 16:18 36.022302 -114.533717 339 11334ft 294kts
21-Feb-19 16:19 36.097626 -114.571356 325 9826ft 287kts
21-Feb-19 16:20 36.122389 -114.659053 276 8129ft 272kts
21-Feb-19 16:21 36.129653 -114.750746 282 6083ft 250kts
21-Feb-19 16:22 36.161789 -114.816154 304 6042ft 220kts
21-Feb-19 16:23 36.196785 -114.877778 306 6037ft 241kts
21-Feb-19 16:24 36.232837 -114.940289 306 6038ft 210kts
21-Feb-19 16:25 36.273518 -114.986079 349 6038ft 202kts
21-Feb-19 16:26 36.323454 -114.956956 36 6015ft 210kts
21-Feb-19 16:27 36.354101 -114.904820 111 6041ft 203kts
21-Feb-19 16:28 36.309137 -114.905193 234 6049ft 194kts
21-Feb-19 16:29 36.301749 -114.967663 252 6162ft 187kts
21-Feb-19 16:30 36.262221 -115.015744 215 5746ft 206kts
21-Feb-19 16:31 36.213172 -115.057380 216 5124ft 217kts
21-Feb-19 16:32 36.167317 -115.097408 217 3861ft 176kts
21-Feb-19 16:33 36.133081 -115.131155 223 3029ft 152kts
21-Feb-19 16:34 36.099435 -115.156624 205 2252ft 134kts
21-Feb-19 16:35 36.083870 -115.166522 233 2184ft 19kts
21-Feb-19 16:36 36.083648 -115.166867 222 2184ft 0kts
21-Feb-19 16:37 36.083088 -115.167389 214 2184ft 19kts
21-Feb-19 16:38 36.080734 -115.171012 135 2184ft 0kts
21-Feb-19 16:39 36.080734 -115.171012 135 2184ft 0kts
21-Feb-19 16:40 36.080734 -115.171012 135 2184ft 0kts
21-Feb-19 16:41 36.080734 -115.171012 135 2184ft 0kts
21-Feb-19 16:42 36.080734 -115.171012 135 2184ft 0kts
21-Feb-19 16:43 36.080734 -115.171012 135 2184ft 0kts
21-Feb-19 16:44 36.080734 -115.171012 135 2184ft 0kts
21-Feb-19 16:45 36.080734 -115.171012 135 2183ft 0kts
21-Feb-19 16:46 36.080734 -115.171012 135 2183ft 0kts
21-Feb-19 16:47 36.080734 -115.171012 135 2183ft 0kts

Navigation Log

Ident Type
Flight plan parsing failed, navigation log unavailable